Time;durP1;ratioP1;P1;durP2;ratioP2;P2;SDS_P1;SDS_P2;PMS_P1;PMS_P2;Temp;Humidity;BMP_temperature;BMP_pressure;BME280_temperature;BME280_humidity;BME280_pressure;Samples;Min_cycle;Max_cycle;Signal;HPM_P1;HPM_P2
2023/11/08 00:00:22;;;;;;;9.25;5.25;;;;;;;7.13;100.00;100871.22;5068632;28;20048;-54
2023/11/08 00:02:52;;;;;;;8.65;4.85;;;;;;;7.15;100.00;100869.38;5068852;28;20824;-53
2023/11/08 00:05:20;;;;;;;10.90;5.07;;;;;;;7.16;100.00;100873.69;5068200;28;20063;-53
2023/11/08 00:07:48;;;;;;;10.52;5.75;;;;;;;7.16;100.00;100863.22;5069216;28;20049;-54
2023/11/08 00:10:18;;;;;;;11.13;6.18;;;;;;;7.17;100.00;100864.91;5067150;28;20080;-54
2023/11/08 00:12:46;;;;;;;10.30;5.07;;;;;;;7.15;100.00;100869.38;5068928;28;20051;-53
2023/11/08 00:15:14;;;;;;;11.35;4.97;;;;;;;7.12;100.00;100872.13;5071043;28;20048;-56
2023/11/08 00:17:42;;;;;;;9.23;4.57;;;;;;;7.05;100.00;100876.00;5068793;28;20090;-54
2023/11/08 00:20:12;;;;;;;9.27;4.82;;;;;;;7.00;100.00;100878.81;5069256;28;20037;-54
2023/11/08 00:22:43;;;;;;;8.63;4.68;;;;;;;6.97;100.00;100878.97;5068338;28;20080;-55
2023/11/08 00:25:11;;;;;;;8.70;4.88;;;;;;;6.96;100.00;100869.44;5068859;28;20130;-54
2023/11/08 00:27:39;;;;;;;8.45;4.32;;;;;;;6.93;100.00;100869.59;5070709;28;20063;-53
2023/11/08 00:30:08;;;;;;;11.10;4.85;;;;;;;6.90;100.00;100867.13;5074942;28;20049;-52
2023/11/08 00:32:37;;;;;;;8.30;4.20;;;;;;;6.87;100.00;100862.03;5072678;28;20499;-53
2023/11/08 00:35:05;;;;;;;10.73;4.47;;;;;;;6.91;100.00;100866.19;5072241;28;20072;-54
2023/11/08 00:37:35;;;;;;;11.32;4.13;;;;;;;6.87;100.00;100869.88;5072441;28;20379;-55
2023/11/08 00:40:05;;;;;;;8.50;4.28;;;;;;;6.85;100.00;100872.56;5074491;28;20084;-54
2023/11/08 00:42:33;;;;;;;9.82;3.97;;;;;;;6.81;100.00;100872.81;5075556;28;20075;-54
2023/11/08 00:45:01;;;;;;;8.32;3.75;;;;;;;6.79;100.00;100875.50;5070218;28;20052;-54
2023/11/08 00:47:30;;;;;;;7.93;4.20;;;;;;;6.76;100.00;100875.63;5069122;28;20041;-51
2023/11/08 00:49:59;;;;;;;8.20;4.22;;;;;;;6.72;100.00;100872.34;5065581;28;20048;-49
2023/11/08 00:52:27;;;;;;;7.03;3.35;;;;;;;6.71;100.00;100880.25;5060718;28;20040;-50
2023/11/08 00:54:57;;;;;;;9.40;4.32;;;;;;;6.67;100.00;100889.16;5070235;28;20048;-53
2023/11/08 00:57:25;;;;;;;9.88;4.03;;;;;;;6.66;100.00;100882.25;5071450;28;20043;-48
2023/11/08 00:59:53;;;;;;;8.55;4.28;;;;;;;6.66;100.00;100883.06;5051797;28;20053;-50
2023/11/08 01:02:21;;;;;;;9.70;4.20;;;;;;;6.66;100.00;100887.47;5061373;28;20638;-50
2023/11/08 01:04:51;;;;;;;10.38;3.92;;;;;;;6.70;100.00;100897.69;5056721;28;20508;-49
2023/11/08 01:07:20;;;;;;;9.30;4.25;;;;;;;6.68;100.00;100893.44;5060223;28;20141;-47
2023/11/08 01:09:48;;;;;;;12.07;4.68;;;;;;;6.69;100.00;100895.16;5062505;28;20056;-50
2023/11/08 01:12:17;;;;;;;7.97;4.72;;;;;;;6.66;100.00;100893.53;5070945;28;20036;-49
2023/11/08 01:14:45;;;;;;;7.65;3.88;;;;;;;6.66;100.00;100893.53;5071542;28;20555;-47
2023/11/08 01:17:13;;;;;;;10.00;4.32;;;;;;;6.71;100.00;100903.78;5071018;28;20049;-50
2023/11/08 01:19:42;;;;;;;12.65;5.03;;;;;;;6.67;100.00;100894.41;5071206;28;20087;-48
2023/11/08 01:22:11;;;;;;;10.15;4.57;;;;;;;6.64;100.00;100890.16;5071046;28;20075;-49
2023/11/08 01:24:41;;;;;;;9.50;4.20;;;;;;;6.66;100.00;100906.59;5067126;28;20864;-46
2023/11/08 01:27:09;;;;;;;9.27;4.43;;;;;;;6.66;100.00;100906.59;5061720;28;20115;-47
2023/11/08 01:29:39;;;;;;;9.50;4.80;;;;;;;6.58;100.00;100901.72;5067503;28;20044;-46
2023/11/08 01:32:08;;;;;;;9.98;4.65;;;;;;;6.58;100.00;100906.94;5060754;28;20499;-46
2023/11/08 01:34:36;;;;;;;10.77;5.10;;;;;;;6.59;100.00;100899.97;5062844;28;20043;-47
2023/11/08 01:37:05;;;;;;;9.13;4.70;;;;;;;6.60;100.00;100912.97;5061072;28;20057;-47
2023/11/08 01:39:33;;;;;;;8.95;5.18;;;;;;;6.60;100.00;100906.91;5054597;28;20052;-46
2023/11/08 01:42:02;;;;;;;10.20;5.85;;;;;;;6.60;100.00;100917.38;5052517;28;20073;-47
2023/11/08 01:44:30;;;;;;;9.63;4.63;;;;;;;6.59;100.00;100910.44;5061425;28;20064;-46
2023/11/08 01:46:59;;;;;;;12.65;5.22;;;;;;;6.58;100.00;100917.41;5053782;28;20048;-47
2023/11/08 01:49:28;;;;;;;10.07;4.97;;;;;;;6.60;100.00;100920.81;5054500;28;20053;-47
2023/11/08 01:51:59;;;;;;;10.77;4.75;;;;;;;6.60;100.00;100917.38;5064963;28;20051;-47
2023/11/08 01:54:28;;;;;;;12.05;5.28;;;;;;;6.66;100.00;100921.44;5057775;28;20067;-48
2023/11/08 01:56:56;;;;;;;10.07;5.15;;;;;;;6.72;100.00;100923.75;5059378;28;20053;-47
2023/11/08 01:59:25;;;;;;;12.57;4.93;;;;;;;6.69;100.00;100916.91;5052706;28;20048;-47
2023/11/08 02:01:57;;;;;;;9.73;4.85;;;;;;;6.74;100.00;100927.16;5060000;28;20037;-50
2023/11/08 02:04:28;;;;;;;9.07;4.93;;;;;;;6.72;100.00;100926.38;5056428;28;20051;-51
2023/11/08 02:06:57;;;;;;;10.02;5.25;;;;;;;6.74;100.00;100921.94;5065427;28;20063;-48
2023/11/08 02:09:25;;;;;;;13.75;5.78;;;;;;;6.74;100.00;100925.38;5059252;28;20072;-48
2023/11/08 02:11:55;;;;;;;10.73;4.95;;;;;;;6.78;100.00;100928.69;5049552;28;20099;-51
2023/11/08 02:14:25;;;;;;;10.75;5.60;;;;;;;6.80;100.00;100931.25;5053629;28;20052;-49
2023/11/08 02:16:53;;;;;;;12.32;5.40;;;;;;;6.81;100.00;100925.09;5066921;28;20163;-50
2023/11/08 02:19:21;;;;;;;11.32;5.03;;;;;;;6.86;100.00;100934.41;5059689;28;20090;-51
2023/11/08 02:21:51;;;;;;;10.32;5.10;;;;;;;6.85;100.00;100935.31;5059026;28;20516;-49
2023/11/08 02:24:22;;;;;;;10.73;5.60;;;;;;;6.89;100.00;100936.03;5067375;28;20412;-49
2023/11/08 02:26:50;;;;;;;10.98;5.68;;;;;;;6.93;100.00;100935.78;5059390;28;20503;-47
2023/11/08 02:29:19;;;;;;;13.02;6.45;;;;;;;6.97;100.00;100940.88;5059160;28;20127;-49
2023/11/08 02:31:50;;;;;;;12.13;5.70;;;;;;;6.96;100.00;100940.03;5056615;28;20786;-48
2023/11/08 02:34:19;;;;;;;13.20;6.07;;;;;;;6.98;100.00;100932.97;5058693;28;20040;-48
2023/11/08 02:36:48;;;;;;;12.35;6.50;;;;;;;7.00;100.00;100932.91;5058823;28;20500;-46
2023/11/08 02:39:17;;;;;;;12.98;6.55;;;;;;;7.01;100.00;100934.56;5062683;28;20157;-49
2023/11/08 02:41:47;;;;;;;12.77;6.32;;;;;;;7.04;100.00;100931.81;5061870;28;20040;-47
2023/11/08 02:44:15;;;;;;;11.77;6.45;;;;;;;7.04;100.00;100934.44;5055508;28;20045;-46
2023/11/08 02:46:43;;;;;;;13.57;6.80;;;;;;;7.09;100.00;100932.47;5064333;28;20040;-49
2023/11/08 02:49:11;;;;;;;13.65;6.45;;;;;;;7.13;100.00;100931.38;5067534;28;20488;-49
2023/11/08 02:51:39;;;;;;;11.48;6.90;;;;;;;7.13;100.00;100926.16;5060691;28;20175;-48
2023/11/08 02:54:08;;;;;;;15.60;7.38;;;;;;;7.11;100.00;100926.19;5048950;28;20033;-49
2023/11/08 02:56:38;;;;;;;11.70;6.88;;;;;;;7.14;100.00;100924.38;5050657;28;20045;-48
2023/11/08 02:59:08;;;;;;;10.27;7.15;;;;;;;7.16;100.00;100927.75;5054216;28;20045;-46
2023/11/08 03:01:37;;;;;;;12.88;7.18;;;;;;;7.18;100.00;100925.91;5061696;28;20064;-48
2023/11/08 03:04:06;;;;;;;12.00;7.10;;;;;;;7.17;100.00;100925.06;5057497;28;20037;-49
2023/11/08 03:06:34;;;;;;;11.82;7.13;;;;;;;7.17;100.00;100919.84;5058232;28;20056;-51
2023/11/08 03:09:05;;;;;;;11.43;7.35;;;;;;;7.18;100.00;100928.53;5051479;28;20075;-50
2023/11/08 03:11:34;;;;;;;15.43;8.77;;;;;;;7.16;100.00;100938.19;5052883;28;20516;-48
2023/11/08 03:14:02;;;;;;;15.82;7.72;;;;;;;7.22;100.00;100927.44;5064481;28;20056;-54
2023/11/08 03:16:33;;;;;;;13.10;7.93;;;;;;;7.20;100.00;100943.22;5069185;28;20045;-49
2023/11/08 03:19:01;;;;;;;15.25;8.85;;;;;;;7.24;100.00;100943.91;5072539;28;20098;-54
2023/11/08 03:21:32;;;;;;;16.73;8.32;;;;;;;7.25;100.00;100941.25;5071014;28;20052;-53
2023/11/08 03:24:01;;;;;;;12.75;8.05;;;;;;;7.21;100.00;100934.47;5068333;28;20689;-54
2023/11/08 03:26:30;;;;;;;15.27;8.75;;;;;;;7.21;100.00;100936.22;5068367;28;20411;-54
2023/11/08 03:28:58;;;;;;;14.18;8.77;;;;;;;7.23;100.00;100944.84;5062086;28;20083;-54
2023/11/08 03:31:26;;;;;;;13.82;8.07;;;;;;;7.21;100.00;100944.94;5066244;28;20041;-55
2023/11/08 03:33:57;;;;;;;13.95;8.57;;;;;;;7.25;100.00;100949.09;5065200;28;20040;-53
2023/11/08 03:36:28;;;;;;;13.93;8.30;;;;;;;7.23;100.00;100945.69;5055462;28;20492;-54
2023/11/08 03:38:57;;;;;;;14.73;8.60;;;;;;;7.25;100.00;100949.09;5050979;28;20106;-56
2023/11/08 03:41:25;;;;;;;15.50;8.77;;;;;;;7.25;100.00;100946.47;5050947;28;20060;-54
2023/11/08 03:43:54;;;;;;;15.02;8.48;;;;;;;7.27;100.00;100951.63;5050792;28;20040;-55
2023/11/08 03:46:22;;;;;;;16.88;8.07;;;;;;;7.26;100.00;100944.69;5050982;28;20037;-56
2023/11/08 03:48:54;;;;;;;12.38;7.10;;;;;;;7.31;100.00;100947.94;5049598;28;20044;-51
2023/11/08 03:51:24;;;;;;;16.23;7.03;;;;;;;7.30;100.00;100940.16;5047797;28;20057;-53
2023/11/08 03:53:52;;;;;;;13.20;7.07;;;;;;;7.25;100.00;100938.63;5064164;28;20068;-55
2023/11/08 03:56:21;;;;;;;12.32;7.00;;;;;;;7.28;100.00;100933.22;5060383;28;20052;-55
2023/11/08 03:58:49;;;;;;;14.00;7.03;;;;;;;7.25;100.00;100929.91;5056515;28;20687;-53
2023/11/08 04:01:17;;;;;;;11.05;7.03;;;;;;;7.23;100.00;100930.00;5057369;28;20136;-54
2023/11/08 04:03:46;;;;;;;12.75;7.35;;;;;;;7.25;100.00;100937.75;5064586;28;20041;-54
2023/11/08 04:06:14;;;;;;;10.43;6.82;;;;;;;7.27;100.00;100936.75;5063904;28;20049;-53
2023/11/08 04:08:44;;;;;;;11.63;6.50;;;;;;;7.28;100.00;100937.63;5057896;28;20043;-53
2023/11/08 04:11:12;;;;;;;10.73;7.13;;;;;;;7.25;100.00;100938.63;5056760;28;20063;-53
2023/11/08 04:13:40;;;;;;;12.63;7.03;;;;;;;7.28;100.00;100933.22;5069985;28;20056;-53
2023/11/08 04:16:11;;;;;;;15.02;7.03;;;;;;;7.24;100.00;100942.16;5070294;28;20046;-54
2023/11/08 04:18:39;;;;;;;15.50;7.90;;;;;;;7.25;100.00;100946.47;5068710;28;20044;-54
2023/11/08 04:21:07;;;;;;;9.98;6.15;;;;;;;7.30;100.00;100942.78;5068516;28;20052;-54
2023/11/08 04:23:35;;;;;;;12.38;6.43;;;;;;;7.27;100.00;100947.22;5071910;28;20049;-53
2023/11/08 04:26:08;;;;;;;10.85;5.45;;;;;;;7.26;100.00;100950.75;5071725;28;20048;-53
2023/11/08 04:28:39;;;;;;;9.52;4.95;;;;;;;7.26;100.00;100948.13;5070365;28;20079;-55
2023/11/08 04:31:08;;;;;;;10.77;5.57;;;;;;;7.24;100.00;100946.50;5066888;28;20055;-54
2023/11/08 04:33:36;;;;;;;10.75;5.35;;;;;;;7.23;100.00;100953.53;5064074;28;20562;-53
2023/11/08 04:36:07;;;;;;;10.07;5.38;;;;;;;7.23;100.00;100957.94;5056252;28;20053;-53
2023/11/08 04:38:36;;;;;;;10.25;5.35;;;;;;;7.19;100.00;100959.84;5065713;28;20109;-53
2023/11/08 04:41:04;;;;;;;11.55;4.88;;;;;;;7.25;100.00;100966.53;5064555;28;20041;-53
2023/11/08 04:43:35;;;;;;;10.15;5.00;;;;;;;7.23;100.00;100956.16;5058451;28;20045;-51
2023/11/08 04:46:03;;;;;;;10.60;4.50;;;;;;;7.26;100.00;100960.38;5062104;28;20114;-52
2023/11/08 04:48:31;;;;;;;9.57;4.32;;;;;;;7.21;100.00;100965.84;5064160;28;20521;-53
2023/11/08 04:50:59;;;;;;;8.65;4.50;;;;;;;7.18;100.00;100952.91;5047157;28;20051;-54
2023/11/08 04:53:27;;;;;;;9.98;3.90;;;;;;;7.18;100.00;100959.91;5048312;28;20041;-54
2023/11/08 04:55:56;;;;;;;11.60;4.20;;;;;;;7.19;100.00;100959.84;5054632;28;20443;-51
2023/11/08 04:58:24;;;;;;;11.40;4.45;;;;;;;7.19;100.00;100965.06;5056580;28;20055;-55
2023/11/08 05:00:53;;;;;;;9.48;4.20;;;;;;;7.22;100.00;100970.13;5057506;28;20052;-53
2023/11/08 05:03:21;;;;;;;13.40;4.53;;;;;;;7.21;100.00;100954.53;5055112;28;20123;-53
2023/11/08 05:05:49;;;;;;;13.88;4.72;;;;;;;7.24;100.00;100968.31;5054153;28;20048;-52
2023/11/08 05:08:18;;;;;;;9.55;4.35;;;;;;;7.21;100.00;100963.25;5063026;28;20067;-54
2023/11/08 05:10:46;;;;;;;8.30;3.58;;;;;;;7.20;100.00;100961.53;5060475;28;20048;-54
2023/11/08 05:13:15;;;;;;;10.68;4.05;;;;;;;7.19;100.00;100975.53;5075321;28;20079;-52
2023/11/08 05:15:43;;;;;;;11.23;3.80;;;;;;;7.18;100.00;100965.16;5072084;28;20048;-54
2023/11/08 05:18:13;;;;;;;9.77;4.13;;;;;;;7.19;100.00;100970.31;5072423;28;20135;-52
2023/11/08 05:20:43;;;;;;;9.75;3.40;;;;;;;7.20;100.00;100963.28;5074880;28;20049;-52
2023/11/08 05:23:11;;;;;;;8.75;3.75;;;;;;;7.18;100.00;100965.97;5071971;28;20048;-55
2023/11/08 05:25:40;;;;;;;10.65;3.60;;;;;;;7.19;100.00;100969.47;5070273;28;20044;-52
2023/11/08 05:28:08;;;;;;;10.30;3.08;;;;;;;7.15;100.00;100968.75;5070578;28;20052;-52
2023/11/08 05:30:37;;;;;;;11.13;3.50;;;;;;;7.12;100.00;100968.91;5067819;28;20037;-52
2023/11/08 05:33:06;;;;;;;8.00;3.10;;;;;;;7.11;100.00;100972.44;5067150;28;20040;-53
2023/11/08 05:35:36;;;;;;;10.25;4.10;;;;;;;7.10;100.00;100978.59;5067706;28;20097;-54
2023/11/08 05:38:05;;;;;;;10.02;3.83;;;;;;;7.14;100.00;100980.13;5054013;28;20045;-52
2023/11/08 05:40:34;;;;;;;9.32;3.67;;;;;;;7.16;100.00;100973.06;5056366;28;20896;-51
2023/11/08 05:43:02;;;;;;;8.65;3.63;;;;;;;7.11;100.00;100973.28;5058238;28;20087;-55
2023/11/08 05:45:30;;;;;;;7.85;3.15;;;;;;;7.12;100.00;100974.16;5060913;28;20474;-53
2023/11/08 05:47:59;;;;;;;11.43;3.70;;;;;;;7.11;100.00;100980.28;5058450;28;20051;-53
2023/11/08 05:50:27;;;;;;;7.97;2.97;;;;;;;7.08;100.00;100980.44;5061969;28;20048;-53
2023/11/08 05:52:57;;;;;;;8.85;3.00;;;;;;;7.06;100.00;100982.28;5060718;28;20515;-51
2023/11/08 05:55:25;;;;;;;7.57;2.83;;;;;;;7.04;100.00;100986.75;5061166;28;20425;-53
2023/11/08 05:57:55;;;;;;;8.75;2.95;;;;;;;7.02;100.00;100983.34;5066731;28;20096;-55
2023/11/08 06:00:25;;;;;;;8.07;2.90;;;;;;;7.03;100.00;100982.44;5057309;28;20571;-55
2023/11/08 06:02:53;;;;;;;8.57;2.60;;;;;;;6.97;100.00;100991.41;5062352;28;20041;-53
2023/11/08 06:05:21;;;;;;;10.55;2.65;;;;;;;6.96;100.00;100986.25;5052154;28;20045;-47
2023/11/08 06:07:49;;;;;;;10.48;3.00;;;;;;;6.93;100.00;100984.63;5052623;28;20078;-46
2023/11/08 06:10:22;;;;;;;8.48;2.55;;;;;;;6.90;100.00;100980.41;5059008;28;20051;-51
2023/11/08 06:12:50;;;;;;;7.53;2.33;;;;;;;6.90;100.00;100982.19;5055676;28;20463;-47
2023/11/08 06:15:18;;;;;;;8.18;2.30;;;;;;;6.83;100.00;100979.00;5069268;28;20094;-49
2023/11/08 06:17:47;;;;;;;9.48;2.50;;;;;;;6.81;100.00;100990.44;5073388;28;20036;-47
2023/11/08 06:20:16;;;;;;;9.27;2.67;;;;;;;6.78;100.00;100975.75;5073582;28;20040;-50
2023/11/08 06:22:44;;;;;;;9.05;2.00;;;;;;;6.74;100.00;100982.88;5071595;28;20060;-47
2023/11/08 06:25:12;;;;;;;8.60;2.47;;;;;;;6.74;100.00;100979.44;5073775;28;20060;-46
2023/11/08 06:27:42;;;;;;;8.23;2.67;;;;;;;6.68;100.00;100990.16;5073476;28;20049;-47
2023/11/08 06:30:11;;;;;;;8.10;2.55;;;;;;;6.66;100.00;100992.84;5073220;28;20048;-49
2023/11/08 06:32:40;;;;;;;5.88;2.17;;;;;;;6.67;100.00;100989.31;5063069;28;20453;-47
2023/11/08 06:35:09;;;;;;;8.23;2.72;;;;;;;6.60;100.00;100996.59;5050242;28;20045;-47
2023/11/08 06:37:38;;;;;;;6.22;2.20;;;;;;;6.58;100.00;100993.19;5051252;28;20056;-47
2023/11/08 06:40:09;;;;;;;7.85;2.35;;;;;;;6.57;100.00;100988.91;5050291;28;20059;-49
2023/11/08 06:42:38;;;;;;;8.15;2.50;;;;;;;6.55;100.00;100995.13;5058326;28;20099;-49
2023/11/08 06:45:09;;;;;;;8.93;2.50;;;;;;;6.54;100.00;100991.63;5062213;28;20051;-46
2023/11/08 06:47:37;;;;;;;6.43;2.17;;;;;;;6.50;100.00;100990.09;5055767;28;20055;-47
2023/11/08 06:50:08;;;;;;;7.18;2.30;;;;;;;6.47;100.00;100998.06;5048446;28;20049;-46
2023/11/08 06:52:37;;;;;;;6.25;2.03;;;;;;;6.50;100.00;100992.69;5048180;28;20041;-45
2023/11/08 06:55:05;;;;;;;6.68;2.25;;;;;;;6.48;100.00;100996.31;5050451;28;20045;-53
2023/11/08 06:57:39;;;;;;;8.40;1.98;;;;;;;6.48;100.00;100999.78;5048909;28;20492;-51
2023/11/08 07:00:14;;;;;;;9.70;2.53;;;;;;;6.49;100.00;100995.38;5048937;28;20053;-46
2023/11/08 07:02:42;;;;;;;5.35;2.08;;;;;;;6.43;100.00;100999.13;5065525;28;20072;-46
2023/11/08 07:05:12;;;;;;;8.65;2.33;;;;;;;6.45;100.00;101005.16;5062293;28;20037;-46
2023/11/08 07:07:42;;;;;;;7.32;2.50;;;;;;;6.42;100.00;101010.50;5056703;28;20502;-47
2023/11/08 07:10:11;;;;;;;6.70;2.28;;;;;;;6.40;100.00;101013.19;5058853;28;20044;-45
2023/11/08 07:12:40;;;;;;;9.75;3.10;;;;;;;6.38;100.00;101014.16;5058706;28;20045;-52
2023/11/08 07:15:10;;;;;;;8.32;2.70;;;;;;;6.36;100.00;101009.00;5057183;28;20067;-51
2023/11/08 07:17:40;;;;;;;8.20;2.20;;;;;;;6.35;100.00;101019.53;5056468;28;20105;-51
2023/11/08 07:20:09;;;;;;;9.20;2.10;;;;;;;6.38;100.00;101019.38;5055327;28;20052;-53
2023/11/08 07:22:37;;;;;;;7.90;2.20;;;;;;;6.37;100.00;101012.50;5059922;28;20036;-53
2023/11/08 07:25:08;;;;;;;7.25;2.30;;;;;;;6.36;100.00;101013.41;5054590;28;20037;-54
2023/11/08 07:27:36;;;;;;;8.48;2.35;;;;;;;6.33;100.00;101013.53;5069087;28;20060;-52
2023/11/08 07:30:10;;;;;;;6.70;1.83;;;;;;;6.32;100.00;101011.84;5070794;28;20480;-50
2023/11/08 07:32:40;;;;;;;6.80;2.10;;;;;;;6.32;100.00;101015.28;5072648;28;20104;-52
2023/11/08 07:35:09;;;;;;;6.38;2.42;;;;;;;6.34;100.00;101017.81;5071671;28;20049;-53
2023/11/08 07:37:39;;;;;;;9.02;2.40;;;;;;;6.35;100.00;101009.91;5070046;28;20059;-54
2023/11/08 07:40:12;;;;;;;7.82;2.40;;;;;;;6.41;100.00;101019.28;5062823;28;20044;-55
2023/11/08 07:42:41;;;;;;;9.52;2.55;;;;;;;6.45;100.00;101017.34;5065271;28;20048;-53
2023/11/08 07:45:11;;;;;;;6.75;1.90;;;;;;;6.54;100.00;101020.38;5062077;28;20139;-51
2023/11/08 07:47:40;;;;;;;8.75;2.33;;;;;;;6.53;100.00;101020.47;5064234;28;20044;-53
2023/11/08 07:50:11;;;;;;;7.40;2.38;;;;;;;6.59;100.00;101026.25;5051928;28;20048;-53
2023/11/08 07:52:42;;;;;;;7.68;2.30;;;;;;;6.66;100.00;101029.44;5051369;28;20037;-54
2023/11/08 07:55:12;;;;;;;9.77;2.30;;;;;;;6.69;100.00;101025.84;5048582;28;20053;-52
2023/11/08 07:57:41;;;;;;;8.63;2.38;;;;;;;6.67;100.00;101030.31;5049031;28;20500;-52
2023/11/08 08:00:14;;;;;;;3.83;1.95;;;;;;;6.71;100.00;101026.63;5050846;28;20049;-49
2023/11/08 08:02:44;;;;;;;6.10;2.22;;;;;;;6.76;100.00;101035.09;5049133;28;20488;-52
2023/11/08 08:05:13;;;;;;;7.68;2.17;;;;;;;6.94;100.00;101028.19;5048172;28;20049;-52
2023/11/08 08:07:41;;;;;;;7.50;1.92;;;;;;;7.03;100.00;101021.66;5048909;28;20122;-51
2023/11/08 08:10:12;;;;;;;7.35;2.20;;;;;;;7.36;100.00;101027.06;5050814;28;20044;-50
2023/11/08 08:12:41;;;;;;;6.72;2.50;;;;;;;7.45;100.00;101028.34;5051916;28;20044;-53
2023/11/08 08:15:17;;;;;;;6.82;2.72;;;;;;;7.49;100.00;101023.81;5051939;28;20111;-54
2023/11/08 08:17:46;;;;;;;9.90;2.70;;;;;;;7.55;100.00;101028.75;5051817;28;20480;-53
2023/11/08 08:20:15;;;;;;;6.10;2.60;;;;;;;7.52;100.00;101029.75;5051686;28;20443;-52
2023/11/08 08:22:44;;;;;;;8.07;2.25;;;;;;;7.41;100.00;101042.50;5051398;28;20052;-53
2023/11/08 08:25:12;;;;;;;8.60;2.85;;;;;;;7.49;100.00;101056.06;5046899;28;20045;-51
2023/11/08 08:27:41;;;;;;;6.50;2.53;;;;;;;7.59;100.00;101051.22;5048620;28;20041;-53
2023/11/08 08:30:11;;;;;;;7.13;2.70;;;;;;;7.73;100.00;101053.16;5048323;28;20057;-52
2023/11/08 08:32:39;;;;;;;11.10;3.15;;;;;;;7.64;100.00;101044.00;5050544;28;20055;-53
2023/11/08 08:35:09;;;;;;;7.68;2.63;;;;;;;7.69;100.00;101031.53;5051666;28;20110;-53
2023/11/08 08:37:38;;;;;;;12.90;3.03;;;;;;;7.70;100.00;101029.75;5051261;28;20052;-51
2023/11/08 08:40:10;;;;;;;11.70;3.10;;;;;;;7.68;100.00;101031.63;5046305;28;20115;-53
2023/11/08 08:42:40;;;;;;;6.88;2.90;;;;;;;7.70;100.00;101046.31;5048292;28;20049;-53
2023/11/08 08:45:09;;;;;;;7.35;2.65;;;;;;;7.78;100.00;101043.31;5046983;28;20044;-53
2023/11/08 08:47:38;;;;;;;9.57;3.25;;;;;;;7.93;100.00;101034.69;5052261;28;20405;-52
2023/11/08 08:50:16;;;;;;;8.07;3.10;;;;;;;7.92;100.00;101034.75;5055393;28;20404;-51
2023/11/08 08:52:45;;;;;;;8.88;3.03;;;;;;;7.96;100.00;101033.66;5055347;28;20488;-54
2023/11/08 08:55:14;;;;;;;9.40;3.08;;;;;;;7.95;100.00;101029.38;5052688;28;20040;-52
2023/11/08 08:57:46;;;;;;;10.63;3.42;;;;;;;8.02;100.00;101028.13;5051942;28;20050;-54
2023/11/08 09:00:16;;;;;;;10.35;3.50;;;;;;;8.00;100.00;101024.72;5050373;28;20094;-54
2023/11/08 09:02:45;;;;;;;8.63;2.83;;;;;;;8.02;100.00;101029.91;5051457;28;20537;-53
2023/11/08 09:05:20;;;;;;;9.55;3.05;;;;;;;8.12;100.00;101028.50;5051615;28;20121;-53
2023/11/08 09:07:51;;;;;;;10.40;3.10;;;;;;;8.29;100.00;101036.31;5051454;28;20052;-53
2023/11/08 09:10:21;;;;;;;7.95;3.30;;;;;;;8.36;100.00;101028.16;5051360;28;20123;-54
2023/11/08 09:12:49;;;;;;;11.90;2.95;;;;;;;8.45;100.00;101030.28;5059329;28;20418;-55
2023/11/08 09:15:18;;;;;;;8.55;3.00;;;;;;;8.50;100.00;101024.81;5069478;28;20442;-54
2023/11/08 09:17:46;;;;;;;9.27;3.13;;;;;;;8.48;100.00;101013.56;5059101;28;20044;-52
2023/11/08 09:20:15;;;;;;;8.13;2.65;;;;;;;8.50;100.00;101011.72;5066314;28;20048;-53
2023/11/08 09:22:47;;;;;;;11.80;3.15;;;;;;;8.66;100.00;101011.72;5062258;28;20562;-51
2023/11/08 09:25:16;;;;;;;8.25;3.00;;;;;;;8.86;100.00;101010.63;5069829;28;20039;-55
2023/11/08 09:27:45;;;;;;;10.82;2.58;;;;;;;8.95;100.00;101008.34;5069794;28;20127;-51
2023/11/08 09:30:14;;;;;;;8.65;3.00;;;;;;;9.14;100.00;101002.06;5056159;28;20080;-52
2023/11/08 09:32:44;;;;;;;9.52;2.92;;;;;;;9.17;100.00;101008.94;5065970;28;20121;-53
2023/11/08 09:35:13;;;;;;;9.55;3.00;;;;;;;9.31;100.00;101003.72;5070834;28;20052;-55
2023/11/08 09:37:41;;;;;;;11.50;3.47;;;;;;;9.34;100.00;101016.69;5074044;28;20063;-53
2023/11/08 09:40:14;;;;;;;9.65;3.13;;;;;;;9.50;100.00;101019.25;5061753;28;20049;-54
2023/11/08 09:42:45;;;;;;;6.70;2.45;;;;;;;9.79;100.00;101014.94;5053268;28;20045;-54
2023/11/08 09:45:17;;;;;;;9.93;3.13;;;;;;;9.75;100.00;101012.59;5056582;28;20076;-55
2023/11/08 09:47:47;;;;;;;8.52;2.70;;;;;;;9.76;100.00;101009.00;5057883;28;20045;-54
2023/11/08 09:50:16;;;;;;;10.20;2.83;;;;;;;9.70;100.00;101004.97;5061926;28;20057;-54
2023/11/08 09:52:44;;;;;;;10.77;2.95;;;;;;;9.72;100.00;101011.00;5062706;28;20037;-54
2023/11/08 09:55:14;;;;;;;9.75;2.80;;;;;;;9.67;100.00;101006.91;5053923;28;20048;-53
2023/11/08 09:57:44;;;;;;;8.38;2.60;;;;;;;9.74;100.00;101003.03;5049834;28;20055;-55
2023/11/08 10:00:14;;;;;;;10.15;2.97;;;;;;;9.74;100.00;101003.03;5050618;28;20052;-53
2023/11/08 10:02:42;;;;;;;11.27;3.22;;;;;;;9.78;100.00;101001.91;5056525;28;20045;-53
2023/11/08 10:05:13;;;;;;;9.80;2.83;;;;;;;9.80;100.00;100997.38;5057689;28;20049;-55
2023/11/08 10:07:42;;;;;;;8.80;2.90;;;;;;;9.89;100.00;101002.09;5055832;28;20036;-52
2023/11/08 10:10:10;;;;;;;6.30;2.03;;;;;;;9.98;100.00;101004.19;5052637;28;20116;-55
2023/11/08 10:12:40;;;;;;;8.20;2.47;;;;;;;10.13;100.00;101001.56;5070780;28;20079;-53
2023/11/08 10:15:11;;;;;;;7.97;2.58;;;;;;;10.26;100.00;100999.88;5070107;28;20086;-55
2023/11/08 10:17:41;;;;;;;8.60;2.70;;;;;;;10.49;100.00;100998.47;5050677;28;20115;-55
2023/11/08 10:20:34;;;;;;;10.50;2.75;;;;;;;10.65;100.00;100995.75;5053836;28;20063;-54
2023/11/08 10:23:07;;;;;;;11.82;2.50;;;;;;;10.76;100.00;100991.59;5053516;28;20057;-56
2023/11/08 10:25:36;;;;;;;12.32;2.83;;;;;;;10.87;100.00;100997.00;5055133;28;20040;-55
2023/11/08 10:28:09;;;;;;;7.05;2.00;;;;;;;10.86;100.00;100994.47;5064682;28;20036;-54
2023/11/08 10:30:39;;;;;;;10.07;2.20;;;;;;;10.84;100.00;100999.84;5061440;28;20032;-54
2023/11/08 10:33:10;;;;;;;7.13;2.00;;;;;;;10.86;100.00;100992.69;5063144;28;20037;-54
2023/11/08 10:35:40;;;;;;;11.77;2.40;;;;;;;10.77;100.00;100982.75;5055376;28;20065;-55
2023/11/08 10:38:10;;;;;;;11.95;2.28;;;;;;;10.78;100.00;100979.19;5056168;28;20041;-56
2023/11/08 10:40:44;;;;;;;;;;;;;;;10.86;100.00;100974.25;5054145;28;20530;-55
2023/11/08 10:43:21;;;;;;;7.53;2.15;;;;;;;10.81;100.00;100973.72;5064526;28;20371;-55
2023/11/08 10:45:50;;;;;;;9.38;2.20;;;;;;;10.85;100.00;100963.84;5057287;28;20044;-54
2023/11/08 10:48:22;;;;;;;8.10;2.42;;;;;;;10.98;100.00;100977.91;5049192;28;20559;-55
2023/11/08 10:50:52;;;;;;;11.27;2.15;;;;;;;10.91;100.00;100958.19;5052425;28;20053;-53
2023/11/08 10:53:21;;;;;;;8.38;2.33;;;;;;;10.91;100.00;100956.41;5053164;28;20468;-59
2023/11/08 10:55:52;;;;;;;7.88;2.33;;;;;;;10.85;100.00;100967.31;5057278;28;20044;-57
2023/11/08 10:58:27;;;;;;;8.82;2.50;;;;;;;10.87;100.00;100960.19;5056845;28;20124;-55
2023/11/08 11:00:59;;;;;;;10.68;2.63;;;;;;;10.75;100.00;100951.28;5053242;28;20041;-55
2023/11/08 11:03:28;;;;;;;10.90;2.72;;;;;;;10.80;100.00;100954.47;5051274;28;20544;-55
2023/11/08 11:06:00;;;;;;;9.77;2.13;;;;;;;10.79;100.00;100951.94;5058502;28;20052;-60
2023/11/08 11:08:34;;;;;;;7.53;2.33;;;;;;;10.90;100.00;100948.63;5050841;28;20671;-54
2023/11/08 11:11:04;;;;;;;7.65;2.13;;;;;;;10.77;100.00;100949.41;5056838;28;20052;-56
2023/11/08 11:13:38;;;;;;;7.57;2.13;;;;;;;10.87;100.00;100940.94;5051287;28;20071;-57
2023/11/08 11:16:14;;;;;;;9.77;2.33;;;;;;;10.74;100.00;100943.50;5063610;28;20052;-58
2023/11/08 11:19:02;;;;;;;10.40;2.42;;;;;;;10.75;100.00;100943.38;5061308;28;20056;-55
2023/11/08 11:21:39;;;;;;;10.65;2.65;;;;;;;10.74;100.00;100922.44;5062461;28;20072;-55
2023/11/08 11:24:40;;;;;;;10.60;2.90;;;;;;;10.75;100.00;100926.78;5054048;28;20120;-57
2023/11/08 11:27:10;;;;;;;8.65;1.98;;;;;;;10.73;100.00;100934.75;5063320;28;20077;-53
2023/11/08 11:29:41;;;;;;;11.10;3.35;;;;;;;10.74;100.00;100919.81;5059587;28;20053;-55
2023/11/08 11:32:34;;;;;;;11.80;2.85;;;;;;;10.73;100.00;100918.97;5059388;28;20045;-53